Terminal Aerodrome Forecast
Issued by NWS Grand Forks, ND

Home | Current Version | Previous Version | Graphics & Text | Print | Product List | Glossary On
Versions: 1 2 3 4 5 6 7 8 9 10 11 12 13 14 15 16 17
000
FTUS43 KFGF 281725
TAFGFK
TAF
KGFK 281725Z 2818/2918 23018G28KT P6SM SCT050
     FM282100 23028G35KT P6SM SCT040
     FM290500 25025G33KT P6SM BKN030
     FM291400 29028G37KT P6SM SCT030=

USA.gov is the U.S. government's official web portal to all federal, state and local government web resources and services.